CheckWX is a tool to help pilots better visualize weather data.  It is not intended as a substitute for an official pre-flight weather briefing.

12:38:20 UTC

KJXN METAR
Jackson County-Reynolds Field Airport
Jackson, Michigan, USA
Current

42 mins ago

KJXN 221156Z 32003KT 6SM BR CLR M06/M08 A3040 RMK AO2 SLP309 I6000 T10561078 11033 21072 51020
Observed
Feb-22 @ 11:56 UTC
Wind
  • 320° at 3 KTS
Visibility
6 SM
Flight Rules
VFR
Conditions
Mist
Cloud Levels
  • Clear skies
Temperature
-6°C / 21°F
Dewpoint
-8°C / 18°F
Humidity
86%
Altimeter
30.4" Hg
Pressure
1030.9 hPa
Previous

2 hours ago

KJXN 221056Z AUTO 32003KT 6SM BR CLR M07/M08 A3038 RMK AO2 SLP303 I1000 T10671078
Observed
Feb-22 @ 10:56 UTC
Wind
  • 320° at 3 KTS
Visibility
6 SM
Flight Rules
VFR
Conditions
Mist
Cloud Levels
  • Clear skies
Temperature
-7°C / 19°F
Dewpoint
-8°C / 18°F
Humidity
93%
Altimeter
30.38" Hg
Pressure
1030.3 hPa
Previous

3 hours ago

KJXN 220956Z AUTO 00000KT 6SM BR CLR M06/M08 A3036 RMK AO2 SLP295 T10611078
Observed
Feb-22 @ 09:56 UTC
Visibility
6 SM
Flight Rules
VFR
Conditions
Mist
Cloud Levels
  • Clear skies
Temperature
-6°C / 21°F
Dewpoint
-8°C / 18°F
Humidity
86%
Altimeter
30.36" Hg
Pressure
1029.5 hPa